Decoded Metar for KVLD (VALDOSTA REGIONA in GA, USA) (IATA:VLD) | Meteo·Mobile Aviation Weather
aviador You're here:

KVLD Decoded Metar

VALDOSTA REGIONA in GA, USA
Report Time2018-11-15 12:20:00
UTC Time2018-11-15 12:54:10
Flight Rules ifr IFR
WindVRB at 03 kt
Visibility1609 m
Phenomena:Light Rain
Mist
Clouds:Overcast 005 Hf
Ceiling500 ft
Temp10°C (ISA -5)
Dew Point10°C (100% RH)
AAT9.0°C
QNH1018 hPa
Density Alt-351 ft
Elevation203 ft
Report Wrong Elevation
Raw Report
KVLD 151220Z VRB03KT 1SM -RA BR OVC005 10/10 A3006 RMK AO2 RAB16
P0000 T01000100=

Extra information for KVLD:More info

Metar Taf Metar & Taf Last 4 Metars F.Rules Stats Wind Profile Meteogram Temp Stats Airport Information Weather charts Add Link Nearby VenuesMetar ALERT Operation Metar Decoded Social comments

AIRNAV info for KVLD
True Flight Aerospace